Time;durP1;ratioP1;P1;durP2;ratioP2;P2;SDS_P1;SDS_P2;PMS_P1;PMS_P2;Temp;Humidity;BMP_temperature;BMP_pressure;BME280_temperature;BME280_humidity;BME280_pressure;Samples;Min_cycle;Max_cycle;Signal;HPM_P1;HPM_P2
2023/06/03 00:02:04;;;;;;;15.65;7.25;;;14.10;99.90;;;;;;4975749;28;20966;-77
2023/06/03 00:04:33;;;;;;;10.38;6.55;;;14.00;99.90;;;;;;4975543;28;20061;-77
2023/06/03 00:06:58;;;;;;;12.63;6.93;;;14.00;99.90;;;;;;4975025;28;20031;-77
2023/06/03 00:09:24;;;;;;;14.32;6.97;;;13.90;99.90;;;;;;4976472;28;20073;-77
2023/06/03 00:11:50;;;;;;;10.88;6.85;;;13.90;99.90;;;;;;4976157;28;20037;-77
2023/06/03 00:14:16;;;;;;;11.88;7.05;;;13.90;99.90;;;;;;4974708;28;20106;-77
2023/06/03 00:16:45;;;;;;;12.50;7.50;;;13.80;99.90;;;;;;4974698;28;20041;-77
2023/06/03 00:19:14;;;;;;;12.38;7.25;;;13.80;99.90;;;;;;4975332;28;20034;-78
2023/06/03 00:21:46;;;;;;;13.48;7.47;;;13.80;99.90;;;;;;4975526;28;20031;-77
2023/06/03 00:24:13;;;;;;;14.93;7.22;;;13.70;99.90;;;;;;4976320;28;20030;-77
2023/06/03 00:26:38;;;;;;;11.82;7.25;;;13.60;99.90;;;;;;4974640;28;20033;-77
2023/06/03 00:29:04;;;;;;;12.90;7.28;;;13.60;99.90;;;;;;4975550;28;20039;-77
2023/06/03 00:31:30;;;;;;;11.82;6.82;;;13.50;99.90;;;;;;4975238;28;20553;-77
2023/06/03 00:33:55;;;;;;;12.93;6.72;;;13.50;99.90;;;;;;4974747;28;20820;-77
2023/06/03 00:36:21;;;;;;;13.50;6.78;;;13.40;99.90;;;;;;4975673;28;20027;-77
2023/06/03 00:38:46;;;;;;;11.48;6.70;;;13.40;99.90;;;;;;4975104;28;20042;-77
2023/06/03 00:41:12;;;;;;;11.00;6.93;;;13.40;99.90;;;;;;4975249;28;20026;-77
2023/06/03 00:43:37;;;;;;;10.48;6.88;;;13.30;99.90;;;;;;4977059;28;20041;-77
2023/06/03 00:46:03;;;;;;;12.45;7.35;;;13.30;99.90;;;;;;4978182;28;20045;-77
2023/06/03 00:48:28;;;;;;;13.30;8.27;;;13.30;99.90;;;;;;4978442;28;20045;-77
2023/06/03 00:50:54;;;;;;;12.52;7.32;;;13.30;99.90;;;;;;4978594;28;20072;-77
2023/06/03 00:53:20;;;;;;;14.02;6.95;;;13.30;99.90;;;;;;4978169;28;20683;-77
2023/06/03 00:55:45;;;;;;;12.07;7.15;;;13.20;99.90;;;;;;4978238;28;20045;-77
2023/06/03 00:58:11;;;;;;;13.35;7.90;;;13.20;99.90;;;;;;4979151;28;20359;-77
2023/06/03 01:00:37;;;;;;;12.80;6.45;;;13.20;99.90;;;;;;4979992;28;21522;-77
2023/06/03 01:03:02;;;;;;;9.75;6.40;;;13.10;99.90;;;;;;4978856;28;20061;-77
2023/06/03 01:05:28;;;;;;;12.88;6.68;;;13.10;99.90;;;;;;4977616;28;20054;-77
2023/06/03 01:08:03;;;;;;;14.55;7.78;;;13.00;99.90;;;;;;4979099;28;20165;-77
2023/06/03 01:10:46;;;;;;;15.43;8.15;;;13.00;99.90;;;;;;4978327;28;20086;-77
2023/06/03 01:14:03;;;;;;;12.43;7.15;;;13.00;99.90;;;;;;4978477;28;20062;-77
2023/06/03 01:16:32;;;;;;;11.40;6.85;;;13.00;99.90;;;;;;4968478;28;20445;-77
2023/06/03 01:19:00;;;;;;;13.15;7.53;;;12.90;99.90;;;;;;4977928;28;20035;-77
2023/06/03 01:21:34;;;;;;;14.68;7.10;;;12.90;99.90;;;;;;4978700;28;20038;-77
2023/06/03 01:23:59;;;;;;;12.88;6.82;;;12.90;99.90;;;;;;4978271;28;20030;-77
2023/06/03 01:26:28;;;;;;;10.98;7.10;;;12.90;99.90;;;;;;4977717;28;21008;-77
2023/06/03 01:28:54;;;;;;;13.07;6.70;;;12.80;99.90;;;;;;4960920;28;20030;-78
2023/06/03 01:31:19;;;;;;;13.18;6.97;;;12.80;99.90;;;;;;4978194;28;20050;-77
2023/06/03 01:33:46;;;;;;;12.05;7.10;;;12.80;99.90;;;;;;4977937;28;20141;-78
2023/06/03 01:36:12;;;;;;;15.88;6.88;;;12.70;99.90;;;;;;4978220;28;20124;-77
2023/06/03 01:38:38;;;;;;;15.20;7.45;;;12.70;99.90;;;;;;4977130;28;20152;-77
2023/06/03 01:41:04;;;;;;;10.57;7.43;;;12.70;99.90;;;;;;4978468;28;20038;-77
2023/06/03 01:43:30;;;;;;;15.25;7.13;;;12.70;99.90;;;;;;4977502;28;20220;-77
2023/06/03 01:45:56;;;;;;;13.85;6.75;;;12.70;99.90;;;;;;4976873;28;20022;-78
2023/06/03 01:48:21;;;;;;;11.10;7.13;;;12.60;99.90;;;;;;4978113;28;20030;-77
2023/06/03 01:50:47;;;;;;;14.32;7.72;;;12.70;99.90;;;;;;4976428;28;20128;-77
2023/06/03 01:53:13;;;;;;;12.70;6.72;;;12.60;99.90;;;;;;4977301;28;20145;-77
2023/06/03 01:55:39;;;;;;;10.23;6.88;;;12.60;99.90;;;;;;4976262;28;20045;-77
2023/06/03 01:58:05;;;;;;;12.18;6.60;;;12.60;99.90;;;;;;4977757;28;20026;-77
2023/06/03 02:00:31;;;;;;;11.88;6.60;;;12.50;99.90;;;;;;4978490;28;20125;-77
2023/06/03 02:02:56;;;;;;;13.73;7.32;;;12.50;99.90;;;;;;4976257;28;21446;-77
2023/06/03 02:05:22;;;;;;;13.77;6.72;;;12.50;99.90;;;;;;4976407;28;20097;-77
2023/06/03 02:07:47;;;;;;;14.88;7.22;;;12.50;99.90;;;;;;4977853;28;20082;-77
2023/06/03 02:10:13;;;;;;;11.48;6.88;;;12.50;99.90;;;;;;4977290;28;20046;-77
2023/06/03 02:12:38;;;;;;;13.38;6.70;;;12.40;99.90;;;;;;4978579;28;20061;-77
2023/06/03 02:15:07;;;;;;;13.77;6.60;;;12.40;99.90;;;;;;4976401;28;20049;-77
2023/06/03 02:17:32;;;;;;;15.82;6.85;;;12.40;99.90;;;;;;4976948;28;20058;-77
2023/06/03 02:19:58;;;;;;;16.48;7.82;;;12.40;99.90;;;;;;4976760;28;20201;-77
2023/06/03 02:22:24;;;;;;;16.60;7.32;;;12.30;99.90;;;;;;4977565;28;20026;-77
2023/06/03 02:24:50;;;;;;;13.35;6.82;;;12.30;99.90;;;;;;4977786;28;20475;-77
2023/06/03 02:27:19;;;;;;;12.90;7.13;;;12.30;99.90;;;;;;4976588;28;20032;-77
2023/06/03 02:29:50;;;;;;;13.05;7.07;;;12.30;99.90;;;;;;4976796;28;20794;-77
2023/06/03 02:32:16;;;;;;;10.82;7.30;;;12.20;99.90;;;;;;4976408;28;21007;-77
2023/06/03 02:34:46;;;;;;;12.07;7.18;;;12.30;99.90;;;;;;4976120;28;20082;-77
2023/06/03 02:37:13;;;;;;;13.30;6.75;;;12.20;99.90;;;;;;4977038;28;20093;-77
2023/06/03 02:39:39;;;;;;;14.82;6.75;;;12.20;99.90;;;;;;4977748;28;20049;-77
2023/06/03 02:42:05;;;;;;;15.23;6.75;;;12.10;99.90;;;;;;4976530;28;20034;-77
2023/06/03 02:44:30;;;;;;;10.38;6.45;;;12.10;99.90;;;;;;4976708;28;20034;-77
2023/06/03 02:46:56;;;;;;;16.60;7.15;;;12.10;99.90;;;;;;4976126;28;20031;-77
2023/06/03 02:49:21;;;;;;;15.65;6.97;;;12.10;99.90;;;;;;4976846;28;20022;-77
2023/06/03 02:51:47;;;;;;;11.65;6.80;;;12.10;99.90;;;;;;4977616;28;20105;-77
2023/06/03 02:54:12;;;;;;;13.82;6.30;;;12.00;99.90;;;;;;4975499;28;20514;-77
2023/06/03 02:56:38;;;;;;;12.57;6.45;;;12.00;99.90;;;;;;4975918;28;20141;-77
2023/06/03 02:59:05;;;;;;;14.23;7.05;;;12.00;99.90;;;;;;4976936;28;20030;-77
2023/06/03 03:01:31;;;;;;;14.80;6.18;;;11.90;99.90;;;;;;4977528;28;20076;-77
2023/06/03 03:03:56;;;;;;;10.60;6.10;;;12.00;99.90;;;;;;4976946;28;20042;-77
2023/06/03 03:06:24;;;;;;;10.38;6.75;;;11.90;99.90;;;;;;4974245;28;20029;-77
2023/06/03 03:08:50;;;;;;;9.98;6.35;;;11.90;99.90;;;;;;4974885;28;20491;-77
2023/06/03 03:11:16;;;;;;;14.80;6.15;;;11.90;99.90;;;;;;4976054;28;20026;-77
2023/06/03 03:13:42;;;;;;;11.07;6.63;;;11.90;99.90;;;;;;4976212;28;20042;-77
2023/06/03 03:16:09;;;;;;;13.02;6.60;;;11.80;99.90;;;;;;4976052;28;20533;-77
2023/06/03 03:18:36;;;;;;;14.18;7.00;;;11.80;99.90;;;;;;4976614;28;20041;-77
2023/06/03 03:21:02;;;;;;;12.00;6.40;;;11.80;99.90;;;;;;4975728;28;20038;-77
2023/06/03 03:23:28;;;;;;;15.57;6.60;;;11.70;99.90;;;;;;4976540;28;20064;-77
2023/06/03 03:25:57;;;;;;;16.17;6.25;;;11.70;99.90;;;;;;4975115;28;20279;-77
2023/06/03 03:28:23;;;;;;;11.23;6.15;;;11.70;99.90;;;;;;4976568;28;20505;-77
2023/06/03 03:30:49;;;;;;;15.80;6.47;;;11.70;99.90;;;;;;4976355;28;20458;-77
2023/06/03 03:33:17;;;;;;;17.65;6.93;;;11.70;99.90;;;;;;4975192;28;20046;-77
2023/06/03 03:35:43;;;;;;;12.93;6.95;;;11.70;99.90;;;;;;4975191;28;20121;-77
2023/06/03 03:38:09;;;;;;;14.93;6.88;;;11.70;99.90;;;;;;4975787;28;20121;-77
2023/06/03 03:40:38;;;;;;;10.93;6.00;;;11.70;99.90;;;;;;4975502;28;20308;-77
2023/06/03 03:43:04;;;;;;;13.65;6.30;;;11.60;99.90;;;;;;4976895;28;20494;-78
2023/06/03 03:45:35;;;;;;;16.58;6.43;;;11.60;99.90;;;;;;4974685;28;20061;-77
2023/06/03 03:48:06;;;;;;;12.70;6.78;;;11.60;99.90;;;;;;4975324;28;20023;-77
2023/06/03 03:50:38;;;;;;;11.10;5.68;;;11.60;99.90;;;;;;4975818;28;20129;-77
2023/06/03 03:53:05;;;;;;;12.90;6.45;;;11.60;99.90;;;;;;4975239;28;20030;-77
2023/06/03 03:55:33;;;;;;;14.07;6.25;;;11.60;99.90;;;;;;4974954;28;20069;-78
2023/06/03 03:58:03;;;;;;;11.30;5.78;;;11.60;99.90;;;;;;4978153;28;20038;-81
2023/06/03 04:00:30;;;;;;;13.63;6.90;;;11.60;99.90;;;;;;4980255;28;20038;-81
2023/06/03 04:02:57;;;;;;;13.40;6.90;;;11.60;99.90;;;;;;4979509;28;20035;-81
2023/06/03 04:05:25;;;;;;;14.20;6.47;;;11.60;99.90;;;;;;4979923;28;20650;-83
2023/06/03 04:07:50;;;;;;;16.55;7.88;;;11.60;99.90;;;;;;4979747;28;20034;-82
2023/06/03 04:10:20;;;;;;;13.32;6.35;;;11.60;99.90;;;;;;4979439;28;20184;-80
2023/06/03 04:12:47;;;;;;;11.52;6.30;;;11.60;99.90;;;;;;4978403;28;20435;-86
2023/06/03 04:15:13;;;;;;;9.68;5.63;;;11.60;99.90;;;;;;4979132;28;20173;-81
2023/06/03 04:17:40;;;;;;;10.38;6.18;;;11.70;99.90;;;;;;4981874;28;20062;-81
2023/06/03 04:20:19;;;;;;;13.23;6.13;;;11.70;99.90;;;;;;4983750;28;20033;-80
2023/06/03 04:22:45;;;;;;;13.63;5.95;;;11.70;99.90;;;;;;4983723;28;20053;-81
2023/06/03 04:25:11;;;;;;;11.70;5.93;;;11.70;99.90;;;;;;4982856;28;20034;-80
2023/06/03 04:27:36;;;;;;;14.43;6.38;;;11.70;99.90;;;;;;4983110;28;20027;-80
2023/06/03 04:30:04;;;;;;;16.65;6.38;;;11.80;99.90;;;;;;4983859;28;20030;-80
2023/06/03 04:32:29;;;;;;;15.68;6.55;;;11.80;99.90;;;;;;4982809;28;20494;-81
2023/06/03 04:34:55;;;;;;;12.52;5.88;;;11.80;99.90;;;;;;4981945;28;20042;-80
2023/06/03 04:37:22;;;;;;;11.00;6.28;;;11.90;99.90;;;;;;4982602;28;20455;-81
2023/06/03 04:39:51;;;;;;;12.27;6.43;;;11.90;99.90;;;;;;4983499;28;20852;-81
2023/06/03 04:42:17;;;;;;;12.30;5.43;;;12.00;99.90;;;;;;4981084;28;20037;-75
2023/06/03 04:44:43;;;;;;;15.07;5.90;;;12.00;99.90;;;;;;4979565;28;20039;-77
2023/06/03 04:47:11;;;;;;;12.00;6.22;;;12.10;99.90;;;;;;4982302;28;20074;-82
2023/06/03 04:49:40;;;;;;;21.30;6.97;;;12.10;99.90;;;;;;4982809;28;20034;-85
2023/06/03 04:52:10;;;;;;;12.88;5.95;;;12.20;99.90;;;;;;4988086;28;20073;-85
2023/06/03 04:54:40;;;;;;;12.85;5.75;;;12.30;99.90;;;;;;4989194;28;20402;-85
2023/06/03 04:57:06;;;;;;;13.18;6.10;;;12.30;99.90;;;;;;4990282;28;20027;-85
2023/06/03 04:59:33;;;;;;;15.20;5.95;;;12.30;99.90;;;;;;4981312;28;20031;-85
2023/06/03 05:01:58;;;;;;;13.07;6.40;;;12.40;99.90;;;;;;4981018;28;20066;-85
2023/06/03 05:04:29;;;;;;;15.27;6.15;;;12.50;99.90;;;;;;4981713;28;20129;-86
2023/06/03 05:07:00;;;;;;;12.45;6.18;;;12.50;99.90;;;;;;4979614;28;20046;-85
2023/06/03 05:09:26;;;;;;;11.45;5.78;;;12.60;99.90;;;;;;4980876;28;20552;-85
2023/06/03 05:11:51;;;;;;;13.70;5.97;;;12.60;99.90;;;;;;4981496;28;20046;-85
2023/06/03 05:14:17;;;;;;;15.18;6.40;;;12.70;99.90;;;;;;4980729;28;20046;-85
2023/06/03 05:16:43;;;;;;;15.15;5.47;;;12.80;99.90;;;;;;4981332;28;20112;-88
2023/06/03 05:19:08;;;;;;;15.50;5.75;;;12.80;99.90;;;;;;4980688;28;21414;-85
2023/06/03 05:21:34;;;;;;;10.63;5.38;;;12.90;99.90;;;;;;4980603;28;20041;-86
2023/06/03 05:24:00;;;;;;;9.05;5.60;;;13.00;99.90;;;;;;4979213;28;20027;-86
2023/06/03 05:26:26;;;;;;;12.13;5.50;;;13.10;99.90;;;;;;4980969;28;20036;-87
2023/06/03 05:28:52;;;;;;;11.80;6.05;;;13.10;99.90;;;;;;4980318;28;20478;-85
2023/06/03 05:31:17;;;;;;;17.45;6.13;;;13.20;99.90;;;;;;4982265;28;20125;-87
2023/06/03 05:33:43;;;;;;;12.43;5.55;;;13.30;99.90;;;;;;4980792;28;20046;-86
2023/06/03 05:36:09;;;;;;;12.40;6.43;;;13.50;99.90;;;;;;4980231;28;20039;-85
2023/06/03 05:38:34;;;;;;;13.15;5.40;;;13.50;99.90;;;;;;4979958;28;20058;-85
2023/06/03 05:41:02;;;;;;;12.32;5.85;;;13.70;99.90;;;;;;4980952;28;20045;-86
2023/06/03 05:43:28;;;;;;;10.73;5.30;;;13.80;99.90;;;;;;4979143;28;20045;-86
2023/06/03 05:45:53;;;;;;;13.00;5.50;;;13.90;99.90;;;;;;4980275;28;20034;-86
2023/06/03 05:48:19;;;;;;;11.82;5.30;;;14.00;99.90;;;;;;4979663;28;20041;-85
2023/06/03 05:50:50;;;;;;;10.23;6.10;;;14.20;99.90;;;;;;4979001;28;20065;-85
2023/06/03 05:53:19;;;;;;;12.95;5.97;;;14.30;99.90;;;;;;4979986;28;20132;-85
2023/06/03 05:55:45;;;;;;;13.50;6.07;;;14.40;99.90;;;;;;4979672;28;20030;-85
2023/06/03 05:58:10;;;;;;;20.90;5.97;;;14.50;99.90;;;;;;4979197;28;20035;-85
2023/06/03 06:00:36;;;;;;;10.23;5.03;;;14.60;99.90;;;;;;4977999;28;20443;-85
2023/06/03 06:03:01;;;;;;;14.38;6.07;;;14.70;99.90;;;;;;4978877;28;20022;-86
2023/06/03 06:05:27;;;;;;;16.13;5.82;;;14.70;99.90;;;;;;4978136;28;20022;-88
2023/06/03 06:07:52;;;;;;;11.57;5.78;;;14.80;99.90;;;;;;4977592;28;20030;-85
2023/06/03 06:10:18;;;;;;;12.63;5.80;;;14.80;99.90;;;;;;4978243;28;20066;-88
2023/06/03 06:12:44;;;;;;;12.23;5.38;;;14.80;99.90;;;;;;4980336;28;20029;-87
2023/06/03 06:15:10;;;;;;;11.95;5.30;;;14.90;99.90;;;;;;4985077;28;20046;-86
2023/06/03 06:17:37;;;;;;;11.80;5.30;;;14.90;99.90;;;;;;4982364;28;20038;-85
2023/06/03 06:20:03;;;;;;;10.50;5.30;;;15.00;99.90;;;;;;4984038;28;20034;-85
2023/06/03 06:22:29;;;;;;;11.68;6.10;;;15.10;99.90;;;;;;4980684;28;20034;-86
2023/06/03 06:24:54;;;;;;;9.48;5.40;;;15.20;99.90;;;;;;4976424;28;20462;-87
2023/06/03 06:27:20;;;;;;;10.98;5.72;;;15.30;99.90;;;;;;4976559;28;20827;-86
2023/06/03 06:29:45;;;;;;;14.63;6.10;;;15.50;99.90;;;;;;4976421;28;20061;-86
2023/06/03 06:32:26;;;;;;;16.05;5.88;;;15.60;99.90;;;;;;4975181;28;20034;-86
2023/06/03 06:34:55;;;;;;;12.27;5.72;;;15.70;99.90;;;;;;4976402;28;20125;-85
2023/06/03 06:37:21;;;;;;;11.95;5.57;;;15.90;99.90;;;;;;4976195;28;20092;-86
2023/06/03 06:39:51;;;;;;;15.40;5.97;;;16.00;99.90;;;;;;4976692;28;20782;-86
2023/06/03 06:42:28;;;;;;;14.50;5.95;;;16.10;99.90;;;;;;4976649;28;20046;-87
2023/06/03 06:44:53;;;;;;;11.25;5.72;;;16.20;99.90;;;;;;4977546;28;20042;-85
2023/06/03 06:47:24;;;;;;;12.98;6.20;;;16.20;99.90;;;;;;4977714;28;20388;-87
2023/06/03 06:49:50;;;;;;;15.13;6.13;;;16.20;99.90;;;;;;4977899;28;20034;-87
2023/06/03 06:52:16;;;;;;;11.85;5.57;;;16.30;99.90;;;;;;4975981;28;20180;-87
2023/06/03 06:54:42;;;;;;;12.25;5.75;;;16.30;99.90;;;;;;4976756;28;20038;-86
2023/06/03 06:57:08;;;;;;;13.95;6.25;;;16.40;99.90;;;;;;4976490;28;20022;-86
2023/06/03 06:59:33;;;;;;;12.90;5.60;;;16.60;99.90;;;;;;4977961;28;20038;-87
2023/06/03 07:01:59;;;;;;;13.68;5.82;;;16.70;99.90;;;;;;4978890;28;20454;-86
2023/06/03 07:04:25;;;;;;;10.93;6.22;;;16.80;99.90;;;;;;4977139;28;20055;-86
2023/06/03 07:06:51;;;;;;;9.95;5.80;;;16.80;99.90;;;;;;4975439;28;20084;-86
2023/06/03 07:09:16;;;;;;;14.63;5.97;;;16.90;99.90;;;;;;4974620;28;20031;-86
2023/06/03 07:11:46;;;;;;;9.70;5.85;;;17.00;99.90;;;;;;4977903;28;20034;-87
2023/06/03 07:14:12;;;;;;;14.68;5.75;;;17.00;99.90;;;;;;4977530;28;20047;-85
2023/06/03 07:16:40;;;;;;;12.20;5.85;;;17.10;99.90;;;;;;4976278;28;20434;-88
2023/06/03 07:19:06;;;;;;;11.40;6.13;;;17.10;99.90;;;;;;4976532;28;20038;-86
2023/06/03 07:21:33;;;;;;;12.30;6.10;;;17.10;99.90;;;;;;4976827;28;20104;-86
2023/06/03 07:23:59;;;;;;;10.88;6.45;;;17.20;99.90;;;;;;4976951;28;20115;-86
2023/06/03 07:26:27;;;;;;;15.52;6.45;;;17.20;99.90;;;;;;4977894;28;20035;-86
2023/06/03 07:28:56;;;;;;;11.43;5.63;;;17.30;99.90;;;;;;4977855;28;20034;-85
2023/06/03 07:31:22;;;;;;;12.40;6.45;;;17.30;99.90;;;;;;4978425;28;20120;-87
2023/06/03 07:33:50;;;;;;;12.52;5.68;;;17.40;99.90;;;;;;4977575;28;20050;-86
2023/06/03 07:36:18;;;;;;;12.18;5.30;;;17.40;99.90;;;;;;4984157;28;20042;-88
2023/06/03 07:39:06;;;;;;;13.73;6.53;;;17.40;99.90;;;;;;4984454;28;20043;-86
2023/06/03 07:41:34;;;;;;;11.05;5.47;;;17.50;99.90;;;;;;4988130;28;20038;-85
2023/06/03 07:44:00;;;;;;;12.48;6.28;;;17.60;99.90;;;;;;4985574;28;20751;-86
2023/06/03 07:46:48;;;;;;;10.32;5.70;;;17.70;99.90;;;;;;4975552;28;20042;-86
2023/06/03 07:49:16;;;;;;;9.65;5.63;;;17.70;99.90;;;;;;4977183;28;20152;-85
2023/06/03 07:51:44;;;;;;;11.80;5.40;;;17.70;99.90;;;;;;4975157;28;20031;-86
2023/06/03 07:54:10;;;;;;;11.88;5.78;;;17.70;99.90;;;;;;4975847;28;20073;-86
2023/06/03 07:56:36;;;;;;;10.05;5.80;;;17.70;99.90;;;;;;4976823;28;20435;-87
2023/06/03 07:59:03;;;;;;;9.77;5.55;;;17.70;99.90;;;;;;4975139;28;20056;-86
2023/06/03 08:01:29;;;;;;;13.00;5.88;;;17.80;99.90;;;;;;4975482;28;20483;-87
2023/06/03 08:03:55;;;;;;;10.40;6.32;;;17.90;99.90;;;;;;4976395;28;20046;-87
2023/06/03 08:06:26;;;;;;;12.63;5.82;;;18.00;99.90;;;;;;4975825;28;20031;-86
2023/06/03 08:08:53;;;;;;;15.68;5.93;;;18.00;99.90;;;;;;4975022;28;20487;-86
2023/06/03 08:11:20;;;;;;;9.23;5.75;;;18.00;99.90;;;;;;4974739;28;20049;-87
2023/06/03 08:13:46;;;;;;;11.13;6.32;;;18.10;99.90;;;;;;4975339;28;20069;-86
2023/06/03 08:16:14;;;;;;;12.15;6.10;;;18.20;99.90;;;;;;4975840;28;20030;-87
2023/06/03 08:18:47;;;;;;;10.50;5.82;;;18.20;99.90;;;;;;4976029;28;20038;-86
2023/06/03 08:21:13;;;;;;;9.73;5.47;;;18.20;99.90;;;;;;4976150;28;20434;-86
2023/06/03 08:23:39;;;;;;;8.88;5.05;;;18.20;99.90;;;;;;4975460;28;20415;-86
2023/06/03 08:26:05;;;;;;;11.30;6.28;;;18.30;99.90;;;;;;4974979;28;20043;-86
2023/06/03 08:28:30;;;;;;;11.68;6.00;;;18.30;99.90;;;;;;4975106;28;20429;-88
2023/06/03 08:30:56;;;;;;;10.05;5.55;;;18.40;99.90;;;;;;4975057;28;20037;-86
2023/06/03 08:33:22;;;;;;;13.40;5.30;;;18.40;99.90;;;;;;4975201;28;20731;-86
2023/06/03 08:35:48;;;;;;;10.50;5.30;;;18.60;99.90;;;;;;4974955;28;20035;-87
2023/06/03 08:38:17;;;;;;;9.35;5.28;;;18.70;99.90;;;;;;4975686;28;20402;-87
2023/06/03 08:40:48;;;;;;;9.90;5.18;;;18.80;99.90;;;;;;4974714;28;20038;-85
2023/06/03 08:43:14;;;;;;;13.60;5.65;;;18.80;99.90;;;;;;4977698;28;20039;-86
2023/06/03 08:45:57;;;;;;;9.77;5.05;;;18.70;99.90;;;;;;4975542;28;20042;-87
2023/06/03 08:48:55;;;;;;;9.90;5.30;;;18.80;99.90;;;;;;4975281;28;20147;-87
2023/06/03 08:51:23;;;;;;;9.38;5.25;;;18.90;99.90;;;;;;4975780;28;20026;-86
2023/06/03 08:53:50;;;;;;;10.43;5.25;;;18.90;99.90;;;;;;4975499;28;20494;-85
2023/06/03 08:56:18;;;;;;;12.52;5.95;;;18.90;99.90;;;;;;4974186;28;20414;-86
2023/06/03 08:59:00;;;;;;;13.35;5.40;;;18.90;99.90;;;;;;4979066;28;20117;-86
2023/06/03 09:01:32;;;;;;;10.00;5.90;;;19.00;99.90;;;;;;4981123;28;20037;-86
2023/06/03 09:04:00;;;;;;;8.90;5.70;;;19.10;99.90;;;;;;4977883;28;20478;-86
2023/06/03 09:06:26;;;;;;;9.55;5.05;;;19.10;99.90;;;;;;4977998;28;20482;-87
2023/06/03 09:08:53;;;;;;;11.65;5.20;;;19.20;99.90;;;;;;4980203;28;20035;-86
2023/06/03 09:11:19;;;;;;;8.55;5.10;;;19.30;99.90;;;;;;4980661;28;20030;-86
2023/06/03 09:13:46;;;;;;;13.75;5.78;;;19.30;99.90;;;;;;4980019;28;20407;-86
2023/06/03 09:16:13;;;;;;;9.63;5.65;;;19.40;99.90;;;;;;4980227;28;20026;-85
2023/06/03 09:18:38;;;;;;;8.60;5.47;;;19.50;99.90;;;;;;4978275;28;20083;-86
2023/06/03 09:21:08;;;;;;;11.88;5.50;;;19.70;99.90;;;;;;4978465;28;20073;-85
2023/06/03 09:23:34;;;;;;;13.05;5.95;;;19.80;99.90;;;;;;4979165;28;20026;-86
2023/06/03 09:25:59;;;;;;;24.77;6.03;;;20.00;99.90;;;;;;4976711;28;20038;-86
2023/06/03 09:28:25;;;;;;;11.20;5.10;;;20.00;99.90;;;;;;4976863;28;20126;-88
2023/06/03 09:30:51;;;;;;;12.48;5.53;;;20.10;99.90;;;;;;4977244;28;20038;-86
2023/06/03 09:33:16;;;;;;;8.13;4.88;;;20.20;99.90;;;;;;4977097;28;21426;-86
2023/06/03 09:35:42;;;;;;;10.20;4.82;;;20.30;99.90;;;;;;4976868;28;20066;-86
2023/06/03 09:38:07;;;;;;;9.75;4.95;;;20.50;99.90;;;;;;4976007;28;20042;-85
2023/06/03 09:40:34;;;;;;;14.40;5.45;;;20.80;99.90;;;;;;4975753;28;20057;-86
2023/06/03 09:43:00;;;;;;;10.30;5.05;;;21.10;99.90;;;;;;4975358;28;21053;-86
2023/06/03 09:45:30;;;;;;;10.80;5.88;;;21.30;99.90;;;;;;4975566;28;20098;-88
2023/06/03 09:47:57;;;;;;;10.25;5.57;;;21.40;99.90;;;;;;4976305;28;20062;-85
2023/06/03 09:50:24;;;;;;;8.57;4.65;;;21.40;99.90;;;;;;4976504;28;20038;-87
2023/06/03 09:52:50;;;;;;;11.13;5.38;;;21.40;99.90;;;;;;4976590;28;20416;-86
2023/06/03 09:55:17;;;;;;;11.50;5.47;;;21.60;99.90;;;;;;4975837;28;20047;-87
2023/06/03 09:58:04;;;;;;;9.90;4.90;;;21.70;99.90;;;;;;4976824;28;20029;-86
2023/06/03 10:00:45;;;;;;;11.50;5.22;;;21.80;99.90;;;;;;4977184;28;20121;-87
2023/06/03 10:03:10;;;;;;;15.05;5.18;;;21.90;99.90;;;;;;4976616;28;20061;-86
2023/06/03 10:05:36;;;;;;;7.82;5.05;;;22.00;99.90;;;;;;4975984;28;20026;-88
2023/06/03 10:08:03;;;;;;;9.93;5.30;;;22.20;99.90;;;;;;4975289;28;20089;-85
2023/06/03 10:10:30;;;;;;;11.60;5.65;;;22.30;99.90;;;;;;4976675;28;20101;-86
2023/06/03 10:12:56;;;;;;;8.00;4.40;;;22.40;99.90;;;;;;4976684;28;20042;-86
2023/06/03 10:15:36;;;;;;;11.65;4.60;;;22.60;99.90;;;;;;4976127;28;20141;-86
2023/06/03 10:18:03;;;;;;;11.07;5.20;;;22.90;99.90;;;;;;4981252;28;20034;-86
2023/06/03 10:20:39;;;;;;;7.75;4.40;;;22.90;99.90;;;;;;4978373;28;20033;-86
2023/06/03 10:23:06;;;;;;;8.95;4.43;;;23.00;99.90;;;;;;4993233;28;20057;-86
2023/06/03 10:25:37;;;;;;;8.40;4.70;;;23.10;99.90;;;;;;4977917;28;20041;-86
2023/06/03 10:28:03;;;;;;;8.52;4.93;;;23.00;99.90;;;;;;4975332;28;20162;-87
2023/06/03 10:30:30;;;;;;;10.55;4.75;;;22.90;99.90;;;;;;4977731;28;20027;-87
2023/06/03 10:32:58;;;;;;;13.05;4.53;;;22.80;99.90;;;;;;4974626;28;20044;-86
2023/06/03 10:35:24;;;;;;;7.55;4.40;;;22.90;99.90;;;;;;4974244;28;20042;-86
2023/06/03 10:37:51;;;;;;;6.68;4.35;;;23.20;99.90;;;;;;4974844;28;20515;-87
2023/06/03 10:40:17;;;;;;;10.73;4.50;;;23.50;99.90;;;;;;4975456;28;20082;-86
2023/06/03 10:42:44;;;;;;;9.52;4.80;;;23.80;99.90;;;;;;4975886;28;20113;-91
2023/06/03 10:45:11;;;;;;;14.80;4.85;;;23.90;99.90;;;;;;4974947;28;20041;-86
2023/06/03 10:47:40;;;;;;;6.65;4.30;;;23.90;99.90;;;;;;4974870;28;20039;-87
2023/06/03 10:50:30;;;;;;;10.05;4.60;;;24.10;99.90;;;;;;4975307;28;20084;-88
2023/06/03 10:53:29;;;;;;;10.02;4.38;;;24.00;99.90;;;;;;4976006;28;20030;-86
2023/06/03 10:56:22;;;;;;;8.60;4.70;;;24.10;99.90;;;;;;4973564;28;20054;-87
2023/06/03 10:59:00;;;;;;;12.63;5.28;;;24.20;99.90;;;;;;4976035;28;20066;-88
2023/06/03 11:01:58;;;;;;;8.55;4.50;;;24.20;99.90;;;;;;4975811;28;20109;-88
2023/06/03 11:04:26;;;;;;;7.40;4.22;;;24.40;99.90;;;;;;4975737;28;20057;-86
2023/06/03 11:06:52;;;;;;;9.95;5.05;;;24.50;99.90;;;;;;4975200;28;20030;-90
2023/06/03 11:09:37;;;;;;;17.80;5.03;;;24.80;99.90;;;;;;4974168;28;20157;-87
2023/06/03 11:12:09;;;;;;;10.20;4.72;;;25.00;99.90;;;;;;4975038;28;20033;-87
2023/06/03 11:14:42;;;;;;;8.23;4.38;;;25.10;99.90;;;;;;4973090;28;20057;-88
2023/06/03 11:17:12;;;;;;;11.10;4.72;;;25.10;99.90;;;;;;4972878;28;21383;-86
2023/06/03 11:19:46;;;;;;;7.53;4.72;;;25.20;99.90;;;;;;4974482;28;20117;-88
2023/06/03 11:22:36;;;;;;;13.63;4.28;;;25.10;99.90;;;;;;4974462;28;20478;-88
2023/06/03 11:25:02;;;;;;;10.05;4.10;;;25.20;99.90;;;;;;4975088;28;20121;-91
2023/06/03 11:27:28;;;;;;;10.85;4.45;;;25.40;99.90;;;;;;4975093;28;20555;-87
2023/06/03 11:29:56;;;;;;;9.70;4.50;;;25.20;99.90;;;;;;4972929;28;20034;-87
2023/06/03 11:32:28;;;;;;;9.15;5.07;;;25.20;99.90;;;;;;4974399;28;20057;-87
2023/06/03 11:35:03;;;;;;;10.43;4.05;;;25.40;99.90;;;;;;4972615;28;20038;-88
2023/06/03 11:37:41;;;;;;;6.65;4.47;;;25.40;99.90;;;;;;4974881;28;20026;-87
2023/06/03 11:40:18;;;;;;;11.50;4.88;;;25.60;99.90;;;;;;4980959;28;20062;-88
2023/06/03 11:42:47;;;;;;;10.10;4.75;;;25.60;99.90;;;;;;4975807;28;20139;-86
2023/06/03 11:45:21;;;;;;;6.32;4.35;;;25.80;99.90;;;;;;4974133;28;20037;-87
2023/06/03 11:48:04;;;;;;;8.95;4.30;;;25.60;99.90;;;;;;4976472;28;20080;-87
2023/06/03 11:51:00;;;;;;;7.18;4.20;;;25.60;99.90;;;;;;4976115;28;20133;-87
2023/06/03 11:53:34;;;;;;;10.10;4.93;;;25.30;99.90;;;;;;4963163;28;20030;-86
2023/06/03 11:56:10;;;;;;;7.28;4.47;;;25.50;99.90;;;;;;4971225;28;20178;-87
2023/06/03 11:58:37;;;;;;;5.95;4.35;;;25.40;99.90;;;;;;4972924;28;20568;-86
2023/06/03 12:01:16;;;;;;;10.15;4.80;;;25.50;99.90;;;;;;4974177;28;20616;-86
2023/06/03 12:03:57;;;;;;;7.95;4.57;;;25.60;99.00;;;;;;4972720;28;20493;-87
2023/06/03 12:06:22;;;;;;;7.85;4.57;;;25.60;99.30;;;;;;4969577;28;20316;-88
2023/06/03 12:08:49;;;;;;;11.65;3.88;;;25.60;99.20;;;;;;4966964;28;20038;-87
2023/06/03 12:11:37;;;;;;;6.45;4.10;;;25.50;99.60;;;;;;4971193;28;20038;-87
2023/06/03 12:14:02;;;;;;;7.93;4.50;;;25.60;98.50;;;;;;4968946;28;20047;-86
2023/06/03 12:16:33;;;;;;;8.80;4.22;;;25.40;99.60;;;;;;4968523;28;20049;-87
2023/06/03 12:19:05;;;;;;;8.77;4.20;;;25.60;98.70;;;;;;4971274;28;20562;-87
2023/06/03 12:21:31;;;;;;;9.18;3.97;;;25.70;99.10;;;;;;4971820;28;20027;-88
2023/06/03 12:23:57;;;;;;;6.75;4.40;;;26.10;98.70;;;;;;4970525;28;20038;-91
2023/06/03 12:26:25;;;;;;;13.98;4.40;;;26.20;97.70;;;;;;4973033;28;20124;-86
2023/06/03 12:28:51;;;;;;;11.43;4.35;;;26.10;97.90;;;;;;4971794;28;20050;-86
2023/06/03 12:31:17;;;;;;;10.57;4.53;;;26.10;96.30;;;;;;4970962;28;20129;-86
2023/06/03 12:33:44;;;;;;;11.45;4.90;;;26.20;97.70;;;;;;4971217;28;20042;-87
2023/06/03 12:36:12;;;;;;;7.50;4.03;;;26.00;97.50;;;;;;4970734;28;20062;-88
2023/06/03 12:38:56;;;;;;;7.07;4.13;;;26.00;97.10;;;;;;4973637;28;20692;-87
2023/06/03 12:41:22;;;;;;;7.70;4.45;;;26.20;97.40;;;;;;4973945;28;20463;-87
2023/06/03 12:44:00;;;;;;;7.50;4.18;;;26.40;96.10;;;;;;4975491;28;20518;-86
2023/06/03 12:46:25;;;;;;;7.55;4.15;;;26.50;96.20;;;;;;4973355;28;20030;-78